YBMA

Details ICAO YBMA (ISA)
Name Mount Isa
Region Australia
Timezone Australia/Brisbane (UTC+10.0)
Plans Departing 909
Arriving 1080
Stats Elevation 1,121 ft / 342 m (AMSL)
Location -20.666400° 139.488000°
Runways 1
Magnetic Variation 5.559° E
Sunrise 2020-09-19 20:34:57 UTC / 2020-09-20 06:34:57 Local
Sunset 2020-09-20 08:38:47 UTC / 2020-09-20 18:38:47 Local
Advertisement - Login to hide

Runways

ID Width Length Bearing (true/mag) Surface Threshold Overrun Markings Lighting
16 148 ft / 45 m 8,859 ft / 2,700 m 167.80° / 162.24° ASPHALT 210 ft / 64 m 79 ft / 24 m APP EDGE THRESHOLD
34 148 ft / 45 m 8,859 ft / 2,700 m 347.80° / 342.24° ASPHALT 213 ft / 65 m 49 ft / 15 m APP EDGE THRESHOLD

Map

Weather


0- 5 10 15 20 25 30 35+ Temperature / °C

Clouds and Precipitation
Forecast for 2020-09-20 12:00 UTC. Updated 4 hours ago

Ground ~20,000 ft ~40,000 ft Winds

METAR

YBMA 201300Z AUTO 00000KT 9999 // NCD 25/21 Q1012

TAF

TAF AMD YBMA 201123Z 2011/2100 35006KT CAVOK

Frequencies

Unicom 126.50 MHz CTAF
Warning: Do not use this data for real-world aviation or navigation. No guarantee of current accuracy is given.